Port Hope, Minnesota
Current Conditions -  °F | °C
As of 2:32 AM on Monday 24 Nov 2014 (Local Time) from KBJI Reporting Station
Overcast Overcast  
Wind Chill:   Ceiling: 500
Heat Index: 17°   Visibility: 7mi
Dew Point: 15°   Wind: 16mph
Humidity: 93%   Direction: 310°NW
Pressure: 29.43"   Gusts: 22mph
Location:  47.5271°N, 94.7611°W
Report Text: KBJI 240832Z AUTO 31014G19KT 7SM OVC005 M08/M09 A2943 RMK AO2 T10821092
Loading
Personal Weather Stations






























Interactive Weather Map New forecast layout! Learn more

10-Day Weather Forecast

Advertisements
Track Severe Weather on mobile